sensor_id;sensor_type;location;lat;lon;timestamp;temperature;humidity
25440;DHT22;13365;52.208;5.488;2023-02-28T00:00:02;7.40;92.80
25440;DHT22;13365;52.208;5.488;2023-02-28T00:02:35;7.60;92.80
25440;DHT22;13365;52.208;5.488;2023-02-28T00:05:01;7.70;92.60
25440;DHT22;13365;52.208;5.488;2023-02-28T00:07:29;7.70;92.50
25440;DHT22;13365;52.208;5.488;2023-02-28T00:09:54;7.60;92.80
25440;DHT22;13365;52.208;5.488;2023-02-28T00:12:20;7.60;92.80
25440;DHT22;13365;52.208;5.488;2023-02-28T00:14:46;7.60;92.50
25440;DHT22;13365;52.208;5.488;2023-02-28T00:17:11;7.50;92.70
25440;DHT22;13365;52.208;5.488;2023-02-28T00:19:38;7.30;93.00
25440;DHT22;13365;52.208;5.488;2023-02-28T00:22:04;7.30;93.10
25440;DHT22;13365;52.208;5.488;2023-02-28T00:24:29;7.30;93.30
25440;DHT22;13365;52.208;5.488;2023-02-28T00:26:55;7.20;93.50
25440;DHT22;13365;52.208;5.488;2023-02-28T00:29:20;7.20;93.60
25440;DHT22;13365;52.208;5.488;2023-02-28T00:31:46;7.20;93.70
25440;DHT22;13365;52.208;5.488;2023-02-28T00:34:11;7.10;93.70
25440;DHT22;13365;52.208;5.488;2023-02-28T00:36:37;7.20;94.00
25440;DHT22;13365;52.208;5.488;2023-02-28T00:39:03;7.20;93.70
25440;DHT22;13365;52.208;5.488;2023-02-28T00:41:28;7.10;93.80
25440;DHT22;13365;52.208;5.488;2023-02-28T00:43:54;7.30;93.90
25440;DHT22;13365;52.208;5.488;2023-02-28T00:46:20;7.60;93.80
25440;DHT22;13365;52.208;5.488;2023-02-28T00:48:45;7.60;93.20
25440;DHT22;13365;52.208;5.488;2023-02-28T00:51:11;7.50;93.40
25440;DHT22;13365;52.208;5.488;2023-02-28T00:53:36;7.50;93.60
25440;DHT22;13365;52.208;5.488;2023-02-28T00:56:02;7.50;93.50
25440;DHT22;13365;52.208;5.488;2023-02-28T00:58:28;7.40;93.50
25440;DHT22;13365;52.208;5.488;2023-02-28T01:00:54;7.40;93.60
25440;DHT22;13365;52.208;5.488;2023-02-28T01:03:20;7.40;93.70
25440;DHT22;13365;52.208;5.488;2023-02-28T01:05:46;7.30;93.70
25440;DHT22;13365;52.208;5.488;2023-02-28T01:08:13;7.30;94.00
25440;DHT22;13365;52.208;5.488;2023-02-28T01:10:39;7.30;94.00
25440;DHT22;13365;52.208;5.488;2023-02-28T01:13:05;7.30;93.90
25440;DHT22;13365;52.208;5.488;2023-02-28T01:15:31;7.50;93.90
25440;DHT22;13365;52.208;5.488;2023-02-28T01:17:57;7.50;93.80
25440;DHT22;13365;52.208;5.488;2023-02-28T01:20:23;7.70;93.60
25440;DHT22;13365;52.208;5.488;2023-02-28T01:22:49;7.90;93.10
25440;DHT22;13365;52.208;5.488;2023-02-28T01:25:15;7.90;93.00
25440;DHT22;13365;52.208;5.488;2023-02-28T01:27:41;8.00;93.00
25440;DHT22;13365;52.208;5.488;2023-02-28T01:30:07;8.10;92.70
25440;DHT22;13365;52.208;5.488;2023-02-28T01:32:34;8.30;92.60
25440;DHT22;13365;52.208;5.488;2023-02-28T01:34:59;8.60;92.30
25440;DHT22;13365;52.208;5.488;2023-02-28T01:37:25;8.70;91.90
25440;DHT22;13365;52.208;5.488;2023-02-28T01:39:50;8.80;91.60
25440;DHT22;13365;52.208;5.488;2023-02-28T01:42:16;9.00;91.40
25440;DHT22;13365;52.208;5.488;2023-02-28T01:45:16;9.00;91.00
25440;DHT22;13365;52.208;5.488;2023-02-28T01:47:43;8.90;90.90
25440;DHT22;13365;52.208;5.488;2023-02-28T01:50:14;8.80;91.10
25440;DHT22;13365;52.208;5.488;2023-02-28T01:52:40;8.50;91.30
25440;DHT22;13365;52.208;5.488;2023-02-28T01:55:07;8.00;91.90
25440;DHT22;13365;52.208;5.488;2023-02-28T01:57:38;7.70;92.80
25440;DHT22;13365;52.208;5.488;2023-02-28T02:02:35;7.00;94.10
25440;DHT22;13365;52.208;5.488;2023-02-28T02:05:14;7.20;94.70
25440;DHT22;13365;52.208;5.488;2023-02-28T02:07:41;7.30;94.60
25440;DHT22;13365;52.208;5.488;2023-02-28T02:10:20;7.20;94.60
25440;DHT22;13365;52.208;5.488;2023-02-28T02:29:10;7.60;94.50
25440;DHT22;13365;52.208;5.488;2023-02-28T02:34:34;7.80;94.10
25440;DHT22;13365;52.208;5.488;2023-02-28T02:40:18;7.60;94.50
25440;DHT22;13365;52.208;5.488;2023-02-28T02:43:08;7.60;94.90
25440;DHT22;13365;52.208;5.488;2023-02-28T02:45:41;7.80;94.80
25440;DHT22;13365;52.208;5.488;2023-02-28T02:48:10;7.80;94.70
25440;DHT22;13365;52.208;5.488;2023-02-28T02:50:41;7.80;94.70
25440;DHT22;13365;52.208;5.488;2023-02-28T02:53:09;7.80;94.80
25440;DHT22;13365;52.208;5.488;2023-02-28T02:55:39;7.90;94.70
25440;DHT22;13365;52.208;5.488;2023-02-28T02:58:10;8.10;94.70
25440;DHT22;13365;52.208;5.488;2023-02-28T03:00:43;8.30;94.30
25440;DHT22;13365;52.208;5.488;2023-02-28T03:03:12;8.40;94.00
25440;DHT22;13365;52.208;5.488;2023-02-28T03:05:49;8.40;93.90
25440;DHT22;13365;52.208;5.488;2023-02-28T03:08:15;8.40;93.80
25440;DHT22;13365;52.208;5.488;2023-02-28T03:10:45;8.30;93.90
25440;DHT22;13365;52.208;5.488;2023-02-28T03:19:01;8.30;94.30
25440;DHT22;13365;52.208;5.488;2023-02-28T03:21:49;8.40;94.10
25440;DHT22;13365;52.208;5.488;2023-02-28T03:24:28;8.40;93.80
25440;DHT22;13365;52.208;5.488;2023-02-28T03:27:05;8.30;93.80
25440;DHT22;13365;52.208;5.488;2023-02-28T03:29:42;8.20;94.30
25440;DHT22;13365;52.208;5.488;2023-02-28T03:32:16;7.90;94.60
25440;DHT22;13365;52.208;5.488;2023-02-28T03:35:22;7.80;95.00
25440;DHT22;13365;52.208;5.488;2023-02-28T03:37:42;8.10;94.90
25440;DHT22;13365;52.208;5.488;2023-02-28T03:40:24;8.20;94.60
25440;DHT22;13365;52.208;5.488;2023-02-28T03:42:55;8.10;94.30
25440;DHT22;13365;52.208;5.488;2023-02-28T03:45:26;8.10;94.60
25440;DHT22;13365;52.208;5.488;2023-02-28T03:48:02;7.90;94.70
25440;DHT22;13365;52.208;5.488;2023-02-28T03:50:41;7.80;95.10
25440;DHT22;13365;52.208;5.488;2023-02-28T03:53:21;7.70;95.40
25440;DHT22;13365;52.208;5.488;2023-02-28T03:55:57;7.60;95.60
25440;DHT22;13365;52.208;5.488;2023-02-28T04:01:38;7.90;95.10
25440;DHT22;13365;52.208;5.488;2023-02-28T04:04:07;8.30;94.90
25440;DHT22;13365;52.208;5.488;2023-02-28T04:06:33;8.60;94.40
25440;DHT22;13365;52.208;5.488;2023-02-28T04:08:59;8.90;94.00
25440;DHT22;13365;52.208;5.488;2023-02-28T04:13:53;9.30;93.10
25440;DHT22;13365;52.208;5.488;2023-02-28T04:16:19;9.30;92.60
25440;DHT22;13365;52.208;5.488;2023-02-28T04:18:44;9.40;92.50
25440;DHT22;13365;52.208;5.488;2023-02-28T04:21:11;9.20;92.30
25440;DHT22;13365;52.208;5.488;2023-02-28T04:23:37;9.20;92.40
25440;DHT22;13365;52.208;5.488;2023-02-28T04:26:02;9.20;92.30
25440;DHT22;13365;52.208;5.488;2023-02-28T04:28:29;9.30;91.90
25440;DHT22;13365;52.208;5.488;2023-02-28T04:30:56;9.10;91.20
25440;DHT22;13365;52.208;5.488;2023-02-28T04:33:22;9.00;90.30
25440;DHT22;13365;52.208;5.488;2023-02-28T04:35:47;9.10;89.20
25440;DHT22;13365;52.208;5.488;2023-02-28T04:38:13;9.10;87.60
25440;DHT22;13365;52.208;5.488;2023-02-28T04:40:38;9.00;86.30
25440;DHT22;13365;52.208;5.488;2023-02-28T04:43:04;8.90;85.80
25440;DHT22;13365;52.208;5.488;2023-02-28T04:45:29;8.90;85.90
25440;DHT22;13365;52.208;5.488;2023-02-28T04:47:57;8.90;86.10
25440;DHT22;13365;52.208;5.488;2023-02-28T04:50:23;9.10;85.90
25440;DHT22;13365;52.208;5.488;2023-02-28T04:52:49;9.20;85.40
25440;DHT22;13365;52.208;5.488;2023-02-28T04:55:14;9.20;85.00
25440;DHT22;13365;52.208;5.488;2023-02-28T04:57:40;9.20;85.20
25440;DHT22;13365;52.208;5.488;2023-02-28T05:00:08;9.20;84.70
25440;DHT22;13365;52.208;5.488;2023-02-28T05:02:37;9.20;84.30
25440;DHT22;13365;52.208;5.488;2023-02-28T05:05:02;9.10;84.30
25440;DHT22;13365;52.208;5.488;2023-02-28T05:07:28;9.20;84.30
25440;DHT22;13365;52.208;5.488;2023-02-28T05:09:54;8.90;83.60
25440;DHT22;13365;52.208;5.488;2023-02-28T05:12:19;8.80;83.70
25440;DHT22;13365;52.208;5.488;2023-02-28T05:14:45;8.70;84.30
25440;DHT22;13365;52.208;5.488;2023-02-28T05:17:10;8.50;85.10
25440;DHT22;13365;52.208;5.488;2023-02-28T05:19:36;8.30;86.10
25440;DHT22;13365;52.208;5.488;2023-02-28T05:22:02;8.20;86.80
25440;DHT22;13365;52.208;5.488;2023-02-28T05:24:27;8.20;87.90
25440;DHT22;13365;52.208;5.488;2023-02-28T05:26:54;8.20;88.40
25440;DHT22;13365;52.208;5.488;2023-02-28T05:29:20;8.40;88.80
25440;DHT22;13365;52.208;5.488;2023-02-28T05:31:45;8.40;89.40
25440;DHT22;13365;52.208;5.488;2023-02-28T05:34:11;8.30;88.50
25440;DHT22;13365;52.208;5.488;2023-02-28T05:36:38;8.40;89.00
25440;DHT22;13365;52.208;5.488;2023-02-28T05:39:05;8.40;89.10
25440;DHT22;13365;52.208;5.488;2023-02-28T05:41:31;8.40;89.50
25440;DHT22;13365;52.208;5.488;2023-02-28T05:43:57;8.40;89.90
25440;DHT22;13365;52.208;5.488;2023-02-28T05:46:24;8.50;90.00
25440;DHT22;13365;52.208;5.488;2023-02-28T05:48:50;8.30;89.70
25440;DHT22;13365;52.208;5.488;2023-02-28T05:51:16;8.30;89.90
25440;DHT22;13365;52.208;5.488;2023-02-28T05:53:42;8.50;90.10
25440;DHT22;13365;52.208;5.488;2023-02-28T05:56:08;8.40;90.00
25440;DHT22;13365;52.208;5.488;2023-02-28T05:58:33;8.30;90.00
25440;DHT22;13365;52.208;5.488;2023-02-28T06:01:01;8.20;90.20
25440;DHT22;13365;52.208;5.488;2023-02-28T06:03:44;8.30;90.40
25440;DHT22;13365;52.208;5.488;2023-02-28T06:06:09;8.40;90.60
25440;DHT22;13365;52.208;5.488;2023-02-28T06:08:35;8.40;90.60
25440;DHT22;13365;52.208;5.488;2023-02-28T06:11:03;8.10;90.50
25440;DHT22;13365;52.208;5.488;2023-02-28T06:13:28;8.20;91.40
25440;DHT22;13365;52.208;5.488;2023-02-28T06:15:54;8.10;90.90
25440;DHT22;13365;52.208;5.488;2023-02-28T06:18:19;7.60;91.10
25440;DHT22;13365;52.208;5.488;2023-02-28T06:20:52;7.60;91.50
25440;DHT22;13365;52.208;5.488;2023-02-28T06:23:20;7.50;91.60
25440;DHT22;13365;52.208;5.488;2023-02-28T06:25:46;7.70;91.80
25440;DHT22;13365;52.208;5.488;2023-02-28T06:28:12;7.80;91.70
25440;DHT22;13365;52.208;5.488;2023-02-28T06:30:38;7.80;91.80
25440;DHT22;13365;52.208;5.488;2023-02-28T06:33:03;8.00;91.80
25440;DHT22;13365;52.208;5.488;2023-02-28T06:35:29;7.70;91.50
25440;DHT22;13365;52.208;5.488;2023-02-28T06:37:55;7.30;91.80
25440;DHT22;13365;52.208;5.488;2023-02-28T06:40:20;7.30;92.40
25440;DHT22;13365;52.208;5.488;2023-02-28T06:42:46;7.80;92.50
25440;DHT22;13365;52.208;5.488;2023-02-28T06:45:12;7.50;92.30
25440;DHT22;13365;52.208;5.488;2023-02-28T06:47:39;7.40;92.60
25440;DHT22;13365;52.208;5.488;2023-02-28T06:50:05;7.30;92.80
25440;DHT22;13365;52.208;5.488;2023-02-28T06:52:31;7.70;92.90
25440;DHT22;13365;52.208;5.488;2023-02-28T06:54:57;7.80;92.70
25440;DHT22;13365;52.208;5.488;2023-02-28T06:57:28;7.70;92.40
25440;DHT22;13365;52.208;5.488;2023-02-28T06:59:57;7.80;92.80
25440;DHT22;13365;52.208;5.488;2023-02-28T07:02:22;7.80;92.80
25440;DHT22;13365;52.208;5.488;2023-02-28T07:04:48;7.80;92.70
25440;DHT22;13365;52.208;5.488;2023-02-28T07:07:13;7.80;92.70
25440;DHT22;13365;52.208;5.488;2023-02-28T07:09:39;7.80;92.70
25440;DHT22;13365;52.208;5.488;2023-02-28T07:12:04;7.90;92.80
25440;DHT22;13365;52.208;5.488;2023-02-28T07:14:30;8.00;92.80
25440;DHT22;13365;52.208;5.488;2023-02-28T07:16:55;8.00;92.80
25440;DHT22;13365;52.208;5.488;2023-02-28T07:19:21;8.20;92.90
25440;DHT22;13365;52.208;5.488;2023-02-28T07:21:47;8.20;92.70
25440;DHT22;13365;52.208;5.488;2023-02-28T07:24:12;8.30;92.80
25440;DHT22;13365;52.208;5.488;2023-02-28T07:26:40;8.20;92.70
25440;DHT22;13365;52.208;5.488;2023-02-28T07:29:06;8.30;92.80
25440;DHT22;13365;52.208;5.488;2023-02-28T07:31:32;8.30;92.80
25440;DHT22;13365;52.208;5.488;2023-02-28T07:33:57;8.40;92.90
25440;DHT22;13365;52.208;5.488;2023-02-28T07:36:23;8.50;92.90
25440;DHT22;13365;52.208;5.488;2023-02-28T07:38:49;8.60;92.80
25440;DHT22;13365;52.208;5.488;2023-02-28T07:41:19;8.50;92.70
25440;DHT22;13365;52.208;5.488;2023-02-28T07:43:45;8.40;93.20
25440;DHT22;13365;52.208;5.488;2023-02-28T07:46:13;8.30;92.90
25440;DHT22;13365;52.208;5.488;2023-02-28T07:48:43;8.30;92.90
25440;DHT22;13365;52.208;5.488;2023-02-28T07:51:08;8.20;93.00
25440;DHT22;13365;52.208;5.488;2023-02-28T07:53:34;8.10;93.20
25440;DHT22;13365;52.208;5.488;2023-02-28T07:56:01;8.20;93.30
25440;DHT22;13365;52.208;5.488;2023-02-28T07:58:28;8.30;93.30
25440;DHT22;13365;52.208;5.488;2023-02-28T08:00:54;8.30;93.30
25440;DHT22;13365;52.208;5.488;2023-02-28T08:03:21;8.20;93.10
25440;DHT22;13365;52.208;5.488;2023-02-28T08:05:48;8.00;93.40
25440;DHT22;13365;52.208;5.488;2023-02-28T08:08:14;8.00;93.70
25440;DHT22;13365;52.208;5.488;2023-02-28T08:10:40;8.10;93.80
25440;DHT22;13365;52.208;5.488;2023-02-28T08:13:06;8.20;93.70
25440;DHT22;13365;52.208;5.488;2023-02-28T08:15:32;8.10;93.90
25440;DHT22;13365;52.208;5.488;2023-02-28T08:17:58;8.20;94.00
25440;DHT22;13365;52.208;5.488;2023-02-28T08:20:25;8.30;94.00
25440;DHT22;13365;52.208;5.488;2023-02-28T08:22:51;8.50;94.00
25440;DHT22;13365;52.208;5.488;2023-02-28T08:25:17;8.60;94.00
25440;DHT22;13365;52.208;5.488;2023-02-28T08:27:43;8.80;93.90
25440;DHT22;13365;52.208;5.488;2023-02-28T08:30:11;8.80;93.90
25440;DHT22;13365;52.208;5.488;2023-02-28T08:32:37;8.90;93.80
25440;DHT22;13365;52.208;5.488;2023-02-28T08:35:03;9.00;93.50
25440;DHT22;13365;52.208;5.488;2023-02-28T08:37:29;9.00;93.40
25440;DHT22;13365;52.208;5.488;2023-02-28T08:39:54;9.10;93.40
25440;DHT22;13365;52.208;5.488;2023-02-28T08:42:20;9.20;93.30
25440;DHT22;13365;52.208;5.488;2023-02-28T08:44:45;9.40;93.40
25440;DHT22;13365;52.208;5.488;2023-02-28T08:47:11;9.50;93.00
25440;DHT22;13365;52.208;5.488;2023-02-28T08:49:37;9.50;92.90
25440;DHT22;13365;52.208;5.488;2023-02-28T08:52:03;9.50;93.10
25440;DHT22;13365;52.208;5.488;2023-02-28T08:54:28;9.70;92.90
25440;DHT22;13365;52.208;5.488;2023-02-28T08:56:56;9.80;92.40
25440;DHT22;13365;52.208;5.488;2023-02-28T08:59:22;9.90;92.20
25440;DHT22;13365;52.208;5.488;2023-02-28T09:01:48;9.90;92.00
25440;DHT22;13365;52.208;5.488;2023-02-28T09:04:13;10.00;91.80
25440;DHT22;13365;52.208;5.488;2023-02-28T09:06:39;10.10;91.70
25440;DHT22;13365;52.208;5.488;2023-02-28T09:09:05;10.10;91.30
25440;DHT22;13365;52.208;5.488;2023-02-28T09:11:34;10.20;90.80
25440;DHT22;13365;52.208;5.488;2023-02-28T09:14:00;10.20;91.10
25440;DHT22;13365;52.208;5.488;2023-02-28T09:16:29;10.30;90.90
25440;DHT22;13365;52.208;5.488;2023-02-28T09:18:54;10.30;90.90
25440;DHT22;13365;52.208;5.488;2023-02-28T09:21:20;10.40;90.30
25440;DHT22;13365;52.208;5.488;2023-02-28T09:23:48;10.40;89.40
25440;DHT22;13365;52.208;5.488;2023-02-28T09:26:25;10.60;88.80
25440;DHT22;13365;52.208;5.488;2023-02-28T09:28:52;10.70;86.60
25440;DHT22;13365;52.208;5.488;2023-02-28T09:31:25;11.20;86.60
25440;DHT22;13365;52.208;5.488;2023-02-28T09:33:53;11.50;85.20
25440;DHT22;13365;52.208;5.488;2023-02-28T09:36:19;11.60;81.50
25440;DHT22;13365;52.208;5.488;2023-02-28T09:38:45;11.60;77.00
25440;DHT22;13365;52.208;5.488;2023-02-28T09:41:37;11.60;72.90
25440;DHT22;13365;52.208;5.488;2023-02-28T09:44:07;11.60;74.60
25440;DHT22;13365;52.208;5.488;2023-02-28T09:46:46;11.40;72.80
25440;DHT22;13365;52.208;5.488;2023-02-28T09:49:19;11.30;71.00
25440;DHT22;13365;52.208;5.488;2023-02-28T09:52:05;11.00;68.20
25440;DHT22;13365;52.208;5.488;2023-02-28T09:54:35;10.80;70.10
25440;DHT22;13365;52.208;5.488;2023-02-28T09:57:10;10.80;72.70
25440;DHT22;13365;52.208;5.488;2023-02-28T10:04:59;10.70;72.20
25440;DHT22;13365;52.208;5.488;2023-02-28T10:07:41;11.00;72.80
25440;DHT22;13365;52.208;5.488;2023-02-28T10:10:41;10.90;68.20
25440;DHT22;13365;52.208;5.488;2023-02-28T10:13:17;10.90;68.20
25440;DHT22;13365;52.208;5.488;2023-02-28T10:15:46;11.00;69.90
25440;DHT22;13365;52.208;5.488;2023-02-28T10:18:19;11.10;72.90
25440;DHT22;13365;52.208;5.488;2023-02-28T10:20:46;11.30;71.20
25440;DHT22;13365;52.208;5.488;2023-02-28T10:23:14;11.40;73.00
25440;DHT22;13365;52.208;5.488;2023-02-28T10:25:59;11.70;72.70
25440;DHT22;13365;52.208;5.488;2023-02-28T10:28:25;11.70;70.00
25440;DHT22;13365;52.208;5.488;2023-02-28T10:30:52;11.60;70.50
25440;DHT22;13365;52.208;5.488;2023-02-28T10:35:49;11.70;67.00
25440;DHT22;13365;52.208;5.488;2023-02-28T10:38:21;11.60;68.10
25440;DHT22;13365;52.208;5.488;2023-02-28T10:40:47;11.40;68.40
25440;DHT22;13365;52.208;5.488;2023-02-28T10:45:39;11.80;67.10
25440;DHT22;13365;52.208;5.488;2023-02-28T10:50:44;11.80;66.30
25440;DHT22;13365;52.208;5.488;2023-02-28T10:56:12;12.20;64.00
25440;DHT22;13365;52.208;5.488;2023-02-28T11:01:33;12.20;64.50
25440;DHT22;13365;52.208;5.488;2023-02-28T11:04:00;12.30;62.20
25440;DHT22;13365;52.208;5.488;2023-02-28T11:06:29;12.20;61.80
25440;DHT22;13365;52.208;5.488;2023-02-28T11:09:00;12.20;62.80
25440;DHT22;13365;52.208;5.488;2023-02-28T11:11:29;12.30;63.40
25440;DHT22;13365;52.208;5.488;2023-02-28T11:14:03;12.50;63.70
25440;DHT22;13365;52.208;5.488;2023-02-28T11:16:34;12.60;63.80
25440;DHT22;13365;52.208;5.488;2023-02-28T11:19:00;12.60;62.10
25440;DHT22;13365;52.208;5.488;2023-02-28T11:21:32;12.70;60.60
25440;DHT22;13365;52.208;5.488;2023-02-28T11:24:28;12.60;62.60
25440;DHT22;13365;52.208;5.488;2023-02-28T11:26:54;12.40;62.40
25440;DHT22;13365;52.208;5.488;2023-02-28T11:29:31;12.40;60.30
25440;DHT22;13365;52.208;5.488;2023-02-28T11:32:13;12.40;62.50
25440;DHT22;13365;52.208;5.488;2023-02-28T11:34:42;12.40;63.20
25440;DHT22;13365;52.208;5.488;2023-02-28T11:37:15;12.10;61.80
25440;DHT22;13365;52.208;5.488;2023-02-28T11:39:42;11.50;60.50
25440;DHT22;13365;52.208;5.488;2023-02-28T11:42:55;10.60;60.30
25440;DHT22;13365;52.208;5.488;2023-02-28T11:48:20;10.70;65.30
25440;DHT22;13365;52.208;5.488;2023-02-28T11:51:22;11.20;65.80
25440;DHT22;13365;52.208;5.488;2023-02-28T12:01:43;11.50;60.10
25440;DHT22;13365;52.208;5.488;2023-02-28T12:04:25;11.20;61.10
25440;DHT22;13365;52.208;5.488;2023-02-28T12:07:07;11.50;63.30
25440;DHT22;13365;52.208;5.488;2023-02-28T12:27:17;11.60;62.60
25440;DHT22;13365;52.208;5.488;2023-02-28T12:29:56;11.80;60.90
25440;DHT22;13365;52.208;5.488;2023-02-28T12:32:30;12.30;60.10
25440;DHT22;13365;52.208;5.488;2023-02-28T12:37:38;12.90;59.30
25440;DHT22;13365;52.208;5.488;2023-02-28T12:40:28;12.70;57.30
25440;DHT22;13365;52.208;5.488;2023-02-28T12:43:02;12.40;59.80
25440;DHT22;13365;52.208;5.488;2023-02-28T12:45:40;12.60;60.10
25440;DHT22;13365;52.208;5.488;2023-02-28T12:48:09;12.10;58.00
25440;DHT22;13365;52.208;5.488;2023-02-28T12:50:37;11.50;57.10
25440;DHT22;13365;52.208;5.488;2023-02-28T12:53:08;11.20;58.40
25440;DHT22;13365;52.208;5.488;2023-02-28T12:55:49;10.80;58.50
25440;DHT22;13365;52.208;5.488;2023-02-28T12:58:34;10.90;61.30
25440;DHT22;13365;52.208;5.488;2023-02-28T13:01:28;11.30;60.80
25440;DHT22;13365;52.208;5.488;2023-02-28T13:04:33;11.60;61.30
25440;DHT22;13365;52.208;5.488;2023-02-28T13:09:56;11.90;58.50
25440;DHT22;13365;52.208;5.488;2023-02-28T13:12:23;12.00;59.30
25440;DHT22;13365;52.208;5.488;2023-02-28T13:14:50;11.70;58.40
25440;DHT22;13365;52.208;5.488;2023-02-28T13:17:21;11.50;56.30
25440;DHT22;13365;52.208;5.488;2023-02-28T13:19:57;11.30;59.30
25440;DHT22;13365;52.208;5.488;2023-02-28T13:22:37;11.60;58.90
25440;DHT22;13365;52.208;5.488;2023-02-28T13:27:58;11.10;57.10
25440;DHT22;13365;52.208;5.488;2023-02-28T13:38:45;10.60;57.90
25440;DHT22;13365;52.208;5.488;2023-02-28T13:44:10;10.30;59.00
25440;DHT22;13365;52.208;5.488;2023-02-28T13:51:50;10.20;58.80
25440;DHT22;13365;52.208;5.488;2023-02-28T13:57:10;9.60;60.40
25440;DHT22;13365;52.208;5.488;2023-02-28T14:02:48;10.10;58.30
25440;DHT22;13365;52.208;5.488;2023-02-28T14:05:20;10.30;58.40
25440;DHT22;13365;52.208;5.488;2023-02-28T14:07:59;10.40;58.80
25440;DHT22;13365;52.208;5.488;2023-02-28T14:10:30;10.60;59.70
25440;DHT22;13365;52.208;5.488;2023-02-28T14:18:23;10.90;59.30
25440;DHT22;13365;52.208;5.488;2023-02-28T14:21:01;10.60;59.00
25440;DHT22;13365;52.208;5.488;2023-02-28T14:23:39;10.20;58.30
25440;DHT22;13365;52.208;5.488;2023-02-28T14:31:29;10.40;58.00
25440;DHT22;13365;52.208;5.488;2023-02-28T14:36:45;10.40;61.10
25440;DHT22;13365;52.208;5.488;2023-02-28T14:39:16;10.50;61.50
25440;DHT22;13365;52.208;5.488;2023-02-28T14:41:43;10.60;59.90
25440;DHT22;13365;52.208;5.488;2023-02-28T14:44:26;10.70;57.60
25440;DHT22;13365;52.208;5.488;2023-02-28T14:46:59;10.50;58.70
25440;DHT22;13365;52.208;5.488;2023-02-28T14:49:34;10.10;58.80
25440;DHT22;13365;52.208;5.488;2023-02-28T14:52:14;10.10;60.20
25440;DHT22;13365;52.208;5.488;2023-02-28T14:54:41;10.10;60.40
25440;DHT22;13365;52.208;5.488;2023-02-28T14:57:21;10.30;59.30
25440;DHT22;13365;52.208;5.488;2023-02-28T15:00:21;10.30;59.60
25440;DHT22;13365;52.208;5.488;2023-02-28T15:02:42;10.60;58.70
25440;DHT22;13365;52.208;5.488;2023-02-28T15:07:44;11.30;56.20
25440;DHT22;13365;52.208;5.488;2023-02-28T15:10:22;11.10;55.00
25440;DHT22;13365;52.208;5.488;2023-02-28T15:13:02;10.90;58.30
25440;DHT22;13365;52.208;5.488;2023-02-28T15:15:46;11.10;58.80
25440;DHT22;13365;52.208;5.488;2023-02-28T15:21:23;11.30;56.30
25440;DHT22;13365;52.208;5.488;2023-02-28T15:24:15;11.10;56.40
25440;DHT22;13365;52.208;5.488;2023-02-28T15:26:45;10.70;56.60
25440;DHT22;13365;52.208;5.488;2023-02-28T15:29:19;10.30;57.50
25440;DHT22;13365;52.208;5.488;2023-02-28T15:31:55;10.00;58.30
25440;DHT22;13365;52.208;5.488;2023-02-28T15:34:26;9.80;58.80
25440;DHT22;13365;52.208;5.488;2023-02-28T15:36:53;9.80;59.70
25440;DHT22;13365;52.208;5.488;2023-02-28T15:39:25;9.70;59.40
25440;DHT22;13365;52.208;5.488;2023-02-28T15:41:52;9.40;58.60
25440;DHT22;13365;52.208;5.488;2023-02-28T15:44:34;9.20;60.20
25440;DHT22;13365;52.208;5.488;2023-02-28T15:47:05;8.90;61.50
25440;DHT22;13365;52.208;5.488;2023-02-28T15:50:13;9.20;60.00
25440;DHT22;13365;52.208;5.488;2023-02-28T15:52:37;9.10;59.90
25440;DHT22;13365;52.208;5.488;2023-02-28T15:55:19;9.10;60.50
25440;DHT22;13365;52.208;5.488;2023-02-28T15:57:47;9.30;60.90
25440;DHT22;13365;52.208;5.488;2023-02-28T16:00:20;9.70;61.60
25440;DHT22;13365;52.208;5.488;2023-02-28T16:02:47;9.80;61.50
25440;DHT22;13365;52.208;5.488;2023-02-28T16:08:01;10.00;59.00
25440;DHT22;13365;52.208;5.488;2023-02-28T16:10:28;10.50;58.70
25440;DHT22;13365;52.208;5.488;2023-02-28T16:12:55;10.30;57.70
25440;DHT22;13365;52.208;5.488;2023-02-28T16:15:24;10.40;58.50
25440;DHT22;13365;52.208;5.488;2023-02-28T16:17:52;10.40;57.50
25440;DHT22;13365;52.208;5.488;2023-02-28T16:20:22;10.50;57.70
25440;DHT22;13365;52.208;5.488;2023-02-28T16:22:48;10.60;57.50
25440;DHT22;13365;52.208;5.488;2023-02-28T16:25:18;10.60;57.80
25440;DHT22;13365;52.208;5.488;2023-02-28T16:27:47;10.80;58.20
25440;DHT22;13365;52.208;5.488;2023-02-28T16:30:23;11.00;58.20
25440;DHT22;13365;52.208;5.488;2023-02-28T16:32:50;11.10;57.70
25440;DHT22;13365;52.208;5.488;2023-02-28T16:35:17;11.00;57.70
25440;DHT22;13365;52.208;5.488;2023-02-28T16:37:43;11.40;58.60
25440;DHT22;13365;52.208;5.488;2023-02-28T16:40:18;11.40;58.70
25440;DHT22;13365;52.208;5.488;2023-02-28T16:42:46;11.20;58.00
25440;DHT22;13365;52.208;5.488;2023-02-28T16:45:20;10.80;58.00
25440;DHT22;13365;52.208;5.488;2023-02-28T16:47:47;10.50;58.20
25440;DHT22;13365;52.208;5.488;2023-02-28T16:50:15;10.40;59.40
25440;DHT22;13365;52.208;5.488;2023-02-28T16:52:41;10.50;59.30
25440;DHT22;13365;52.208;5.488;2023-02-28T16:55:08;10.60;60.30
25440;DHT22;13365;52.208;5.488;2023-02-28T16:57:33;10.40;59.40
25440;DHT22;13365;52.208;5.488;2023-02-28T16:59:59;10.30;60.60
25440;DHT22;13365;52.208;5.488;2023-02-28T17:02:24;10.20;59.90
25440;DHT22;13365;52.208;5.488;2023-02-28T17:04:51;10.00;60.10
25440;DHT22;13365;52.208;5.488;2023-02-28T17:07:17;9.80;59.70
25440;DHT22;13365;52.208;5.488;2023-02-28T17:09:43;9.90;60.80
25440;DHT22;13365;52.208;5.488;2023-02-28T17:12:09;10.00;60.50
25440;DHT22;13365;52.208;5.488;2023-02-28T17:14:36;10.10;60.30
25440;DHT22;13365;52.208;5.488;2023-02-28T17:17:04;10.20;60.50
25440;DHT22;13365;52.208;5.488;2023-02-28T17:19:29;10.00;60.70
25440;DHT22;13365;52.208;5.488;2023-02-28T17:21:55;9.80;61.30
25440;DHT22;13365;52.208;5.488;2023-02-28T17:24:21;9.80;61.20
25440;DHT22;13365;52.208;5.488;2023-02-28T17:26:46;9.50;61.70
25440;DHT22;13365;52.208;5.488;2023-02-28T17:29:20;9.40;62.10
25440;DHT22;13365;52.208;5.488;2023-02-28T17:31:46;9.50;61.90
25440;DHT22;13365;52.208;5.488;2023-02-28T17:34:12;9.50;61.30
25440;DHT22;13365;52.208;5.488;2023-02-28T17:36:43;9.60;61.50
25440;DHT22;13365;52.208;5.488;2023-02-28T17:39:11;9.40;62.10
25440;DHT22;13365;52.208;5.488;2023-02-28T17:41:39;9.50;62.20
25440;DHT22;13365;52.208;5.488;2023-02-28T17:44:05;9.50;62.00
25440;DHT22;13365;52.208;5.488;2023-02-28T17:46:30;9.40;62.10
25440;DHT22;13365;52.208;5.488;2023-02-28T17:48:57;8.90;63.30
25440;DHT22;13365;52.208;5.488;2023-02-28T17:51:23;8.50;65.30
25440;DHT22;13365;52.208;5.488;2023-02-28T17:53:50;8.40;66.00
25440;DHT22;13365;52.208;5.488;2023-02-28T17:56:19;8.40;66.10
25440;DHT22;13365;52.208;5.488;2023-02-28T17:58:45;8.30;66.70
25440;DHT22;13365;52.208;5.488;2023-02-28T18:01:10;8.20;67.10
25440;DHT22;13365;52.208;5.488;2023-02-28T18:03:37;8.10;67.60
25440;DHT22;13365;52.208;5.488;2023-02-28T18:06:03;8.10;68.20
25440;DHT22;13365;52.208;5.488;2023-02-28T18:08:29;8.10;68.30
25440;DHT22;13365;52.208;5.488;2023-02-28T18:10:57;8.00;68.30